sensor_id;sensor_type;location;lat;lon;timestamp;pressure;altitude;pressure_sealevel;temperature;humidity
77149;BME280;66122;47.130;16.844;2024-03-23T00:53:36;99332.22;;;7.21;100.00
77149;BME280;66122;47.130;16.844;2024-03-23T01:03:38;99309.84;;;7.30;100.00
77149;BME280;66122;47.130;16.844;2024-03-23T01:13:40;99305.34;;;7.32;100.00
77149;BME280;66122;47.130;16.844;2024-03-23T01:23:41;99282.75;;;7.45;100.00
77149;BME280;66122;47.130;16.844;2024-03-23T01:33:43;99278.75;;;7.55;100.00
77149;BME280;66122;47.130;16.844;2024-03-23T01:43:44;99260.72;;;7.10;100.00
77149;BME280;66122;47.130;16.844;2024-03-23T01:53:46;99259.50;;;7.17;100.00
77149;BME280;66122;47.130;16.844;2024-03-23T02:03:48;99239.06;;;7.22;100.00
77149;BME280;66122;47.130;16.844;2024-03-23T02:13:49;99225.19;;;7.19;100.00
77149;BME280;66122;47.130;16.844;2024-03-23T02:23:51;99224.03;;;6.88;100.00
77149;BME280;66122;47.130;16.844;2024-03-23T02:33:55;99199.22;;;7.28;100.00
77149;BME280;66122;47.130;16.844;2024-03-23T02:43:56;99186.34;;;7.57;100.00
77149;BME280;66122;47.130;16.844;2024-03-23T02:53:58;99170.78;;;7.69;100.00
77149;BME280;66122;47.130;16.844;2024-03-23T03:04:00;99172.97;;;7.61;100.00
77149;BME280;66122;47.130;16.844;2024-03-23T03:14:01;99166.13;;;7.57;100.00
77149;BME280;66122;47.130;16.844;2024-03-23T03:24:06;99154.50;;;7.61;100.00
77149;BME280;66122;47.130;16.844;2024-03-23T03:34:07;99142.69;;;7.68;100.00
77149;BME280;66122;47.130;16.844;2024-03-23T03:44:09;99122.06;;;7.59;100.00
77149;BME280;66122;47.130;16.844;2024-03-23T03:54:10;99118.97;;;7.51;100.00
77149;BME280;66122;47.130;16.844;2024-03-23T04:04:12;99121.00;;;7.63;100.00
77149;BME280;66122;47.130;16.844;2024-03-23T04:14:15;99126.13;;;7.32;100.00
77149;BME280;66122;47.130;16.844;2024-03-23T04:24:16;99116.13;;;7.21;100.00
77149;BME280;66122;47.130;16.844;2024-03-23T04:34:23;99109.41;;;6.98;100.00
77149;BME280;66122;47.130;16.844;2024-03-23T04:44:25;99108.44;;;6.82;100.00
77149;BME280;66122;47.130;16.844;2024-03-23T04:54:26;99101.19;;;7.04;100.00
77149;BME280;66122;47.130;16.844;2024-03-23T05:04:30;99097.47;;;7.26;100.00
77149;BME280;66122;47.130;16.844;2024-03-23T05:14:33;99077.47;;;7.39;100.00
77149;BME280;66122;47.130;16.844;2024-03-23T05:24:35;99068.91;;;7.51;100.00
77149;BME280;66122;47.130;16.844;2024-03-23T05:34:36;99065.38;;;7.68;100.00
77149;BME280;66122;47.130;16.844;2024-03-23T05:44:38;99044.31;;;7.83;100.00
77149;BME280;66122;47.130;16.844;2024-03-23T05:54:39;99024.81;;;8.02;100.00
77149;BME280;66122;47.130;16.844;2024-03-23T06:04:41;99045.41;;;7.95;100.00
77149;BME280;66122;47.130;16.844;2024-03-23T06:14:42;99023.66;;;8.39;100.00
77149;BME280;66122;47.130;16.844;2024-03-23T06:24:44;99031.28;;;8.43;100.00
77149;BME280;66122;47.130;16.844;2024-03-23T06:34:45;99017.66;;;8.81;100.00
77149;BME280;66122;47.130;16.844;2024-03-23T06:44:47;99031.53;;;9.00;100.00
77149;BME280;66122;47.130;16.844;2024-03-23T06:54:48;99016.44;;;9.16;100.00
77149;BME280;66122;47.130;16.844;2024-03-23T07:04:50;99015.50;;;9.31;100.00
77149;BME280;66122;47.130;16.844;2024-03-23T07:14:52;99011.94;;;9.47;100.00
77149;BME280;66122;47.130;16.844;2024-03-23T07:24:53;98994.34;;;9.74;100.00
77149;BME280;66122;47.130;16.844;2024-03-23T07:34:55;98987.28;;;10.69;100.00
77149;BME280;66122;47.130;16.844;2024-03-23T07:44:57;98986.56;;;10.92;100.00
77149;BME280;66122;47.130;16.844;2024-03-23T07:54:58;98980.75;;;10.87;100.00
77149;BME280;66122;47.130;16.844;2024-03-23T08:05:00;98965.78;;;12.35;95.97
77149;BME280;66122;47.130;16.844;2024-03-23T08:15:01;98964.66;;;13.43;87.49
77149;BME280;66122;47.130;16.844;2024-03-23T08:25:04;98964.91;;;13.40;84.38
77149;BME280;66122;47.130;16.844;2024-03-23T08:35:09;98957.75;;;13.18;83.46
77149;BME280;66122;47.130;16.844;2024-03-23T08:45:11;98943.97;;;13.57;84.01
77149;BME280;66122;47.130;16.844;2024-03-23T08:55:12;98928.13;;;13.56;81.82
77149;BME280;66122;47.130;16.844;2024-03-23T09:05:15;98919.09;;;13.90;82.96
77149;BME280;66122;47.130;16.844;2024-03-23T09:15:16;98912.13;;;14.21;80.85
77149;BME280;66122;47.130;16.844;2024-03-23T09:25:18;98896.34;;;14.29;83.13
77149;BME280;66122;47.130;16.844;2024-03-23T09:35:19;98874.84;;;14.53;80.16
77149;BME280;66122;47.130;16.844;2024-03-23T09:45:26;98840.63;;;16.09;74.59
77149;BME280;66122;47.130;16.844;2024-03-23T09:55:28;98825.03;;;16.99;64.87
77149;BME280;66122;47.130;16.844;2024-03-23T10:05:30;98807.38;;;16.69;60.88
77149;BME280;66122;47.130;16.844;2024-03-23T10:15:40;98792.44;;;16.76;59.38
77149;BME280;66122;47.130;16.844;2024-03-23T10:25:42;98771.03;;;16.76;58.39
77149;BME280;66122;47.130;16.844;2024-03-23T10:35:44;98761.69;;;16.90;59.04
77149;BME280;66122;47.130;16.844;2024-03-23T10:45:49;98722.84;;;17.31;56.47
77149;BME280;66122;47.130;16.844;2024-03-23T10:55:51;98729.38;;;17.46;56.03
77149;BME280;66122;47.130;16.844;2024-03-23T11:05:54;98713.88;;;17.22;53.98
77149;BME280;66122;47.130;16.844;2024-03-23T11:16:12;98695.63;;;17.53;56.22
77149;BME280;66122;47.130;16.844;2024-03-23T11:26:14;98671.78;;;17.77;53.42
77149;BME280;66122;47.130;16.844;2024-03-23T11:36:19;98659.50;;;17.92;52.08
77149;BME280;66122;47.130;16.844;2024-03-23T11:46:23;98642.72;;;17.73;53.67
77149;BME280;66122;47.130;16.844;2024-03-23T11:56:25;98612.88;;;17.68;52.72
77149;BME280;66122;47.130;16.844;2024-03-23T12:06:26;98598.09;;;18.41;49.32
77149;BME280;66122;47.130;16.844;2024-03-23T12:16:28;98580.47;;;18.64;49.86
77149;BME280;66122;47.130;16.844;2024-03-23T12:26:29;98564.22;;;18.82;49.80
77149;BME280;66122;47.130;16.844;2024-03-23T12:36:31;98547.66;;;19.11;46.10
77149;BME280;66122;47.130;16.844;2024-03-23T12:46:32;98520.28;;;19.80;44.88
77149;BME280;66122;47.130;16.844;2024-03-23T12:56:34;98500.50;;;20.82;41.63
77149;BME280;66122;47.130;16.844;2024-03-23T13:06:36;98476.28;;;22.96;37.56
77149;BME280;66122;47.130;16.844;2024-03-23T13:16:37;98476.28;;;22.60;36.58
77149;BME280;66122;47.130;16.844;2024-03-23T13:26:39;98471.81;;;22.02;35.64
77149;BME280;66122;47.130;16.844;2024-03-23T13:36:44;98454.91;;;23.01;35.99
77149;BME280;66122;47.130;16.844;2024-03-23T13:46:46;98446.63;;;24.21;33.52
77149;BME280;66122;47.130;16.844;2024-03-23T13:56:49;98429.75;;;23.01;34.47
77149;BME280;66122;47.130;16.844;2024-03-23T14:06:51;98423.41;;;22.15;35.98
77149;BME280;66122;47.130;16.844;2024-03-23T14:16:53;98434.66;;;22.90;35.20
77149;BME280;66122;47.130;16.844;2024-03-23T14:26:56;98447.06;;;22.85;34.94
77149;BME280;66122;47.130;16.844;2024-03-23T14:36:58;98436.63;;;24.82;33.12
77149;BME280;66122;47.130;16.844;2024-03-23T14:47:02;98437.97;;;23.97;32.62
77149;BME280;66122;47.130;16.844;2024-03-23T14:57:03;98456.28;;;23.40;34.39
77149;BME280;66122;47.130;16.844;2024-03-23T15:07:05;98447.28;;;21.97;35.10
77149;BME280;66122;47.130;16.844;2024-03-23T15:17:07;98452.13;;;21.12;38.44
77149;BME280;66122;47.130;16.844;2024-03-23T15:27:10;98465.69;;;20.11;39.15
77149;BME280;66122;47.130;16.844;2024-03-23T15:37:12;98572.34;;;19.31;43.69
77149;BME280;66122;47.130;16.844;2024-03-23T15:47:14;98600.03;;;15.23;54.27
77149;BME280;66122;47.130;16.844;2024-03-23T15:57:16;98598.94;;;14.48;58.25
77149;BME280;66122;47.130;16.844;2024-03-23T16:07:18;98620.00;;;13.99;56.57
77149;BME280;66122;47.130;16.844;2024-03-23T16:17:19;98647.19;;;13.52;56.81
77149;BME280;66122;47.130;16.844;2024-03-23T16:27:21;98669.00;;;12.91;60.87
77149;BME280;66122;47.130;16.844;2024-03-23T16:37:23;98696.72;;;12.44;63.90
77149;BME280;66122;47.130;16.844;2024-03-23T16:47:25;98705.84;;;12.18;65.00
77149;BME280;66122;47.130;16.844;2024-03-23T16:57:26;98804.59;;;11.77;63.23
77149;BME280;66122;47.130;16.844;2024-03-23T17:07:28;98812.94;;;10.09;69.31
77149;BME280;66122;47.130;16.844;2024-03-23T17:17:31;98912.22;;;9.20;83.93
77149;BME280;66122;47.130;16.844;2024-03-23T17:27:34;98950.13;;;8.47;93.65
77149;BME280;66122;47.130;16.844;2024-03-23T17:37:36;98991.69;;;7.65;100.00
77149;BME280;66122;47.130;16.844;2024-03-23T17:47:38;99025.66;;;7.05;100.00
77149;BME280;66122;47.130;16.844;2024-03-23T17:57:40;99075.44;;;6.92;100.00
77149;BME280;66122;47.130;16.844;2024-03-23T18:07:42;99098.28;;;6.92;100.00
77149;BME280;66122;47.130;16.844;2024-03-23T18:17:44;99138.34;;;6.81;100.00
77149;BME280;66122;47.130;16.844;2024-03-23T18:27:45;99127.94;;;6.78;100.00
77149;BME280;66122;47.130;16.844;2024-03-23T18:37:48;99126.47;;;6.73;100.00
77149;BME280;66122;47.130;16.844;2024-03-23T18:47:50;99145.94;;;6.51;100.00
77149;BME280;66122;47.130;16.844;2024-03-23T18:57:51;99115.78;;;6.40;100.00
77149;BME280;66122;47.130;16.844;2024-03-23T19:07:53;99108.66;;;6.42;100.00
77149;BME280;66122;47.130;16.844;2024-03-23T19:17:55;99107.53;;;6.28;100.00
77149;BME280;66122;47.130;16.844;2024-03-23T19:27:57;99074.13;;;6.31;100.00
77149;BME280;66122;47.130;16.844;2024-03-23T19:37:59;99056.50;;;6.50;100.00
77149;BME280;66122;47.130;16.844;2024-03-23T19:48:00;99045.84;;;6.53;100.00
77149;BME280;66122;47.130;16.844;2024-03-23T19:58:03;99097.19;;;6.61;100.00
77149;BME280;66122;47.130;16.844;2024-03-23T20:08:05;99148.81;;;6.64;100.00
77149;BME280;66122;47.130;16.844;2024-03-23T20:18:11;99161.59;;;6.54;100.00
77149;BME280;66122;47.130;16.844;2024-03-23T20:28:12;99195.44;;;6.43;100.00
77149;BME280;66122;47.130;16.844;2024-03-23T20:38:16;99183.75;;;6.49;100.00
77149;BME280;66122;47.130;16.844;2024-03-23T20:48:20;99234.63;;;6.31;100.00
77149;BME280;66122;47.130;16.844;2024-03-23T20:58:25;99242.78;;;6.24;100.00
77149;BME280;66122;47.130;16.844;2024-03-23T21:08:27;99239.09;;;6.28;100.00
77149;BME280;66122;47.130;16.844;2024-03-23T21:18:29;99232.28;;;6.24;100.00
77149;BME280;66122;47.130;16.844;2024-03-23T21:28:31;99200.31;;;6.13;100.00
77149;BME280;66122;47.130;16.844;2024-03-23T21:38:33;99142.50;;;5.93;100.00
77149;BME280;66122;47.130;16.844;2024-03-23T21:48:34;99154.41;;;5.81;100.00
77149;BME280;66122;47.130;16.844;2024-03-23T21:58:36;99166.38;;;5.68;100.00
77149;BME280;66122;47.130;16.844;2024-03-23T22:08:38;99195.13;;;5.31;100.00
77149;BME280;66122;47.130;16.844;2024-03-23T22:18:39;99195.78;;;4.94;100.00
77149;BME280;66122;47.130;16.844;2024-03-23T22:28:41;99143.28;;;4.94;100.00
77149;BME280;66122;47.130;16.844;2024-03-23T22:38:42;99129.88;;;4.80;100.00
77149;BME280;66122;47.130;16.844;2024-03-23T22:48:44;99117.47;;;4.40;100.00
77149;BME280;66122;47.130;16.844;2024-03-23T22:58:45;99073.94;;;4.78;100.00
77149;BME280;66122;47.130;16.844;2024-03-23T23:08:47;99044.06;;;5.02;100.00
77149;BME280;66122;47.130;16.844;2024-03-23T23:18:49;99016.84;;;4.83;100.00
77149;BME280;66122;47.130;16.844;2024-03-23T23:28:51;98996.91;;;4.99;100.00
77149;BME280;66122;47.130;16.844;2024-03-23T23:38:52;98986.69;;;4.72;100.00
77149;BME280;66122;47.130;16.844;2024-03-23T23:48:54;99058.97;;;4.59;100.00
77149;BME280;66122;47.130;16.844;2024-03-23T23:58:57;99105.50;;;4.54;100.00
